Time;durP1;ratioP1;P1;durP2;ratioP2;P2;SDS_P1;SDS_P2;PMS_P1;PMS_P2;Temp;Humidity;BMP_temperature;BMP_pressure;BME280_temperature;BME280_humidity;BME280_pressure;Samples;Min_cycle;Max_cycle;Signal;HPM_P1;HPM_P2
2023/07/02 00:01:21;;;;;;;10.18;5.32;;;17.00;99.90;;;;;;5057968;28;20051;-78
2023/07/02 00:03:47;;;;;;;11.98;5.22;;;16.90;99.90;;;;;;5047926;28;20083;-73
2023/07/02 00:06:12;;;;;;;12.82;5.40;;;16.80;99.90;;;;;;5012949;28;20528;-77
2023/07/02 00:08:40;;;;;;;12.05;5.68;;;16.80;99.90;;;;;;5029896;28;20114;-74
2023/07/02 00:11:06;;;;;;;13.60;6.10;;;16.80;99.90;;;;;;5029395;28;20489;-78
2023/07/02 00:13:32;;;;;;;12.68;5.95;;;16.80;99.90;;;;;;5046565;28;20112;-75
2023/07/02 00:15:58;;;;;;;13.38;5.47;;;16.70;99.90;;;;;;5012051;28;20037;-75
2023/07/02 00:18:33;;;;;;;11.93;6.00;;;16.70;99.90;;;;;;5048970;28;20444;-74
2023/07/02 00:21:04;;;;;;;11.20;5.45;;;16.60;99.90;;;;;;5017859;28;20036;-76
2023/07/02 00:23:30;;;;;;;13.95;6.10;;;16.60;99.90;;;;;;5016253;28;20045;-77
2023/07/02 00:25:59;;;;;;;14.90;6.63;;;16.60;99.90;;;;;;5032810;28;20039;-72
2023/07/02 00:28:25;;;;;;;19.60;6.65;;;16.50;99.90;;;;;;5060847;28;20044;-77
2023/07/02 00:30:50;;;;;;;14.57;5.75;;;16.50;99.90;;;;;;5067207;28;20044;-74
2023/07/02 00:33:16;;;;;;;15.02;6.18;;;16.50;99.90;;;;;;5030771;28;20148;-70
2023/07/02 00:35:42;;;;;;;14.70;6.35;;;16.50;99.90;;;;;;5045262;28;20065;-75
2023/07/02 00:38:07;;;;;;;14.07;6.80;;;16.50;99.90;;;;;;5046052;28;20045;-75
2023/07/02 00:40:33;;;;;;;14.43;6.45;;;16.40;99.90;;;;;;5063489;28;20093;-75
2023/07/02 00:42:59;;;;;;;16.40;6.40;;;16.40;99.90;;;;;;5035092;28;20060;-72
2023/07/02 00:45:27;;;;;;;12.00;5.82;;;16.40;99.90;;;;;;5014922;28;20091;-78
2023/07/02 00:47:55;;;;;;;18.23;6.88;;;16.30;99.90;;;;;;5046288;28;20045;-77
2023/07/02 00:50:22;;;;;;;17.90;7.63;;;16.30;99.90;;;;;;5066090;28;20040;-78
2023/07/02 00:52:48;;;;;;;18.55;7.50;;;16.30;99.90;;;;;;5039978;28;20037;-77
2023/07/02 00:55:14;;;;;;;18.17;7.15;;;16.30;99.90;;;;;;5051912;28;20048;-74
2023/07/02 00:57:40;;;;;;;17.02;7.10;;;16.20;99.90;;;;;;5047590;28;20075;-75
2023/07/02 01:00:07;;;;;;;15.25;7.22;;;16.20;99.90;;;;;;5030192;28;20044;-73
2023/07/02 01:02:33;;;;;;;19.52;8.00;;;16.20;99.90;;;;;;5049742;28;20049;-74
2023/07/02 01:04:59;;;;;;;16.27;7.40;;;16.10;99.90;;;;;;5052075;28;20068;-72
2023/07/02 01:07:25;;;;;;;18.60;7.70;;;16.10;99.90;;;;;;5026375;28;20116;-73
2023/07/02 01:09:51;;;;;;;14.25;6.40;;;16.10;99.90;;;;;;5014037;28;20301;-76
2023/07/02 01:12:18;;;;;;;14.95;7.03;;;16.20;99.90;;;;;;5065843;28;20072;-76
2023/07/02 01:14:56;;;;;;;15.63;7.10;;;16.20;99.90;;;;;;5031408;28;20070;-73
2023/07/02 01:17:23;;;;;;;20.15;6.97;;;16.10;99.90;;;;;;5064449;28;20044;-71
2023/07/02 01:19:54;;;;;;;17.55;7.78;;;16.20;99.90;;;;;;5028182;28;20123;-78
2023/07/02 01:22:21;;;;;;;20.95;8.73;;;16.10;99.90;;;;;;5021453;28;20476;-76
2023/07/02 01:24:47;;;;;;;24.08;9.10;;;16.10;99.90;;;;;;5047228;28;20040;-78
2023/07/02 01:27:14;;;;;;;19.77;8.07;;;16.10;99.90;;;;;;5046210;28;20032;-77
2023/07/02 01:29:41;;;;;;;20.95;7.63;;;16.00;99.90;;;;;;5044892;28;20516;-79
2023/07/02 01:32:08;;;;;;;17.30;8.20;;;16.10;99.90;;;;;;5047697;28;20090;-74
2023/07/02 01:34:34;;;;;;;17.20;7.47;;;16.10;99.90;;;;;;5047783;28;20072;-77
2023/07/02 01:37:00;;;;;;;14.93;8.55;;;16.00;99.90;;;;;;5010965;28;20068;-78
2023/07/02 01:39:26;;;;;;;21.48;8.13;;;16.00;99.90;;;;;;5044871;28;20456;-75
2023/07/02 01:41:54;;;;;;;18.05;7.82;;;16.00;99.90;;;;;;5045478;28;20048;-76
2023/07/02 01:44:20;;;;;;;22.48;7.82;;;15.90;99.90;;;;;;5039112;28;20051;-78
2023/07/02 01:46:50;;;;;;;22.13;8.32;;;16.00;99.90;;;;;;5012154;28;20614;-76
2023/07/02 01:49:19;;;;;;;20.50;7.90;;;15.90;99.90;;;;;;5030273;28;20068;-79
2023/07/02 01:51:55;;;;;;;20.23;7.95;;;15.90;99.90;;;;;;5026707;28;20041;-74
2023/07/02 01:54:23;;;;;;;19.73;7.57;;;15.90;99.90;;;;;;5042292;28;20455;-76
2023/07/02 01:56:52;;;;;;;19.83;8.13;;;15.90;99.90;;;;;;5031077;28;20056;-72
2023/07/02 01:59:24;;;;;;;;;;;15.90;99.90;;;;;;5030698;28;20501;-77
2023/07/02 02:01:50;;;;;;;21.80;8.02;;;15.80;99.90;;;;;;5044928;28;19947;-75
2023/07/02 02:04:16;;;;;;;21.75;8.25;;;15.80;99.90;;;;;;5050787;28;20093;-78
2023/07/02 02:06:41;;;;;;;20.05;7.97;;;15.80;99.90;;;;;;5067885;28;20393;-77
2023/07/02 02:09:09;;;;;;;18.17;7.65;;;15.70;99.90;;;;;;5018381;28;20040;-77
2023/07/02 02:11:40;;;;;;;22.95;8.35;;;15.60;99.90;;;;;;5060271;28;20045;-73
2023/07/02 02:14:06;;;;;;;21.35;8.68;;;15.70;99.90;;;;;;5028019;28;20098;-72
2023/07/02 02:16:33;;;;;;;20.63;8.68;;;15.60;99.90;;;;;;5016391;28;20124;-78
2023/07/02 02:19:00;;;;;;;21.83;7.47;;;15.50;99.90;;;;;;5045029;28;20049;-74
2023/07/02 02:21:26;;;;;;;18.10;8.43;;;15.50;99.90;;;;;;5025599;28;20068;-75
2023/07/02 02:23:52;;;;;;;21.08;8.68;;;15.50;99.90;;;;;;5031895;28;20135;-75
2023/07/02 02:26:18;;;;;;;19.83;7.93;;;15.50;99.90;;;;;;5031488;28;20693;-79
2023/07/02 02:28:44;;;;;;;21.65;7.95;;;15.40;99.90;;;;;;5033058;28;20080;-73
2023/07/02 02:31:09;;;;;;;20.35;8.70;;;15.40;99.90;;;;;;5051491;28;20052;-73
2023/07/02 02:33:35;;;;;;;18.48;7.55;;;15.40;99.90;;;;;;5058289;28;20052;-73
2023/07/02 02:36:02;;;;;;;17.92;8.00;;;15.40;99.90;;;;;;5047977;28;20453;-73
2023/07/02 02:38:28;;;;;;;19.38;7.78;;;15.30;99.90;;;;;;5044112;28;20041;-73
2023/07/02 02:40:53;;;;;;;16.38;7.97;;;15.30;99.90;;;;;;5047215;28;20370;-76
2023/07/02 02:43:20;;;;;;;21.23;8.50;;;15.20;99.90;;;;;;5040560;28;20354;-74
2023/07/02 02:45:46;;;;;;;14.20;7.22;;;15.20;99.90;;;;;;5034266;28;20080;-74
2023/07/02 02:48:12;;;;;;;20.90;8.32;;;15.20;99.90;;;;;;5063846;28;20071;-71
2023/07/02 02:50:41;;;;;;;18.15;7.93;;;15.20;99.90;;;;;;5033933;28;20080;-73
2023/07/02 02:53:10;;;;;;;23.92;8.25;;;15.20;99.90;;;;;;5053994;28;20094;-73
2023/07/02 02:55:36;;;;;;;22.23;7.90;;;15.20;99.90;;;;;;5050930;28;20548;-76
2023/07/02 02:58:03;;;;;;;22.92;7.85;;;15.20;99.90;;;;;;5050160;28;20041;-76
2023/07/02 03:00:28;;;;;;;21.10;8.40;;;15.30;99.90;;;;;;5049606;28;20346;-76
2023/07/02 03:02:55;;;;;;;23.50;9.15;;;15.20;99.90;;;;;;5056741;28;20268;-75
2023/07/02 03:05:21;;;;;;;20.83;8.10;;;15.20;99.90;;;;;;5048121;28;20033;-77
2023/07/02 03:07:47;;;;;;;22.98;8.57;;;15.20;99.90;;;;;;5066855;28;20060;-72
2023/07/02 03:10:13;;;;;;;20.58;8.43;;;15.10;99.90;;;;;;5069758;28;20044;-75
2023/07/02 03:12:39;;;;;;;20.38;8.07;;;15.10;99.90;;;;;;5063922;28;20037;-74
2023/07/02 03:15:05;;;;;;;20.35;7.97;;;15.10;99.90;;;;;;5050683;28;20460;-76
2023/07/02 03:17:31;;;;;;;20.65;9.57;;;15.00;99.90;;;;;;5046276;28;20068;-76
2023/07/02 03:19:57;;;;;;;22.85;8.88;;;15.00;99.90;;;;;;5051530;28;20512;-72
2023/07/02 03:22:22;;;;;;;16.63;8.45;;;15.00;99.90;;;;;;5042747;28;20041;-74
2023/07/02 03:24:48;;;;;;;18.15;8.40;;;15.10;99.90;;;;;;5048433;28;20037;-73
2023/07/02 03:27:14;;;;;;;20.15;8.85;;;15.00;99.90;;;;;;5034277;28;20120;-77
2023/07/02 03:29:39;;;;;;;19.67;7.90;;;14.90;99.90;;;;;;5049131;28;20079;-72
2023/07/02 03:32:06;;;;;;;24.67;8.32;;;14.90;99.90;;;;;;5041861;28;20089;-74
2023/07/02 03:34:38;;;;;;;23.67;8.88;;;14.90;99.90;;;;;;5044004;28;20049;-75
2023/07/02 03:37:13;;;;;;;21.50;8.45;;;14.20;99.90;;;;;;5029360;28;20842;-78
2023/07/02 03:39:41;;;;;;;21.88;8.38;;;15.00;99.90;;;;;;4992769;28;20083;-76
2023/07/02 03:42:10;;;;;;;22.10;8.50;;;14.90;99.90;;;;;;5005759;28;20073;-73
2023/07/02 03:44:35;;;;;;;23.35;8.32;;;14.30;99.90;;;;;;4997891;28;20045;-76
2023/07/02 03:47:01;;;;;;;19.90;8.07;;;15.00;99.90;;;;;;5040263;28;20443;-77
2023/07/02 03:49:27;;;;;;;20.55;9.27;;;15.00;99.90;;;;;;5052717;28;20037;-77
2023/07/02 03:51:52;;;;;;;22.95;7.47;;;15.00;99.90;;;;;;5053013;28;20040;-76
2023/07/02 03:54:18;;;;;;;26.08;8.25;;;15.10;99.90;;;;;;5052692;28;20057;-77
2023/07/02 03:56:43;;;;;;;21.90;9.05;;;15.10;99.90;;;;;;5047705;28;20729;-81
2023/07/02 03:59:09;;;;;;;22.40;9.07;;;15.10;99.90;;;;;;5049568;28;20048;-76
2023/07/02 04:01:35;;;;;;;20.33;8.00;;;15.10;99.90;;;;;;5049665;28;20053;-74
2023/07/02 04:04:00;;;;;;;19.52;7.90;;;15.10;99.90;;;;;;5047245;28;20051;-78
2023/07/02 04:06:26;;;;;;;20.85;7.90;;;15.20;99.90;;;;;;5005550;28;20503;-74
2023/07/02 04:08:52;;;;;;;27.40;9.05;;;15.20;99.90;;;;;;5016500;28;20094;-75
2023/07/02 04:11:17;;;;;;;20.75;7.90;;;15.20;99.90;;;;;;5016217;28;20041;-75
2023/07/02 04:13:43;;;;;;;22.38;8.30;;;15.30;99.90;;;;;;5016153;28;20041;-76
2023/07/02 04:16:09;;;;;;;20.77;8.35;;;15.30;99.90;;;;;;5048353;28;20095;-78
2023/07/02 04:18:34;;;;;;;22.70;8.40;;;15.30;99.90;;;;;;5049028;28;20057;-72
2023/07/02 04:21:01;;;;;;;22.83;8.65;;;15.30;99.90;;;;;;4994243;28;20113;-81
2023/07/02 04:23:27;;;;;;;22.50;8.07;;;15.40;99.90;;;;;;5015560;28;20075;-76
2023/07/02 04:25:52;;;;;;;18.17;7.40;;;15.40;99.90;;;;;;5031327;28;20064;-72
2023/07/02 04:28:18;;;;;;;17.63;7.90;;;15.50;99.90;;;;;;5048583;28;20045;-75
2023/07/02 04:30:44;;;;;;;20.08;8.02;;;15.60;99.90;;;;;;5052004;28;20145;-74
2023/07/02 04:33:14;;;;;;;22.48;9.43;;;15.70;99.90;;;;;;5059090;28;20095;-78
2023/07/02 04:35:39;;;;;;;22.38;8.07;;;15.70;99.90;;;;;;5032183;28;20067;-79
2023/07/02 04:38:06;;;;;;;17.98;7.32;;;15.70;99.90;;;;;;5047233;28;20045;-74
2023/07/02 04:40:31;;;;;;;17.60;8.07;;;15.80;99.90;;;;;;5045149;28;20045;-73
2023/07/02 04:42:57;;;;;;;18.67;7.43;;;15.90;99.90;;;;;;5050607;28;20048;-76
2023/07/02 04:45:36;;;;;;;19.10;8.63;;;15.90;99.90;;;;;;5044869;28;20563;-77
2023/07/02 04:48:04;;;;;;;17.90;8.35;;;15.90;99.90;;;;;;5030056;28;20049;-78
2023/07/02 04:50:30;;;;;;;21.10;9.18;;;15.90;99.90;;;;;;5046142;28;20465;-75
2023/07/02 04:52:56;;;;;;;18.75;7.78;;;15.90;99.90;;;;;;5063380;28;20090;-75
2023/07/02 04:55:21;;;;;;;17.55;7.78;;;15.90;99.90;;;;;;5011563;28;20489;-75
2023/07/02 04:57:47;;;;;;;18.80;7.30;;;15.80;99.90;;;;;;5046602;28;20090;-79
2023/07/02 05:00:14;;;;;;;20.10;7.95;;;15.90;99.90;;;;;;5062211;28;20037;-79
2023/07/02 05:02:40;;;;;;;22.15;7.65;;;15.90;99.90;;;;;;5047452;28;20059;-75
2023/07/02 05:05:06;;;;;;;23.73;8.45;;;15.90;99.90;;;;;;5037007;28;20090;-74
2023/07/02 05:07:33;;;;;;;20.52;8.43;;;16.00;99.90;;;;;;5044276;28;20611;-74
2023/07/02 05:09:58;;;;;;;20.15;7.78;;;16.00;99.90;;;;;;5047061;28;20095;-78
2023/07/02 05:12:24;;;;;;;20.60;7.40;;;16.10;99.90;;;;;;5039939;28;20436;-73
2023/07/02 05:14:50;;;;;;;21.80;8.18;;;16.10;99.90;;;;;;5057297;28;20059;-80
2023/07/02 05:17:15;;;;;;;17.45;7.05;;;16.20;99.90;;;;;;5019812;28;20072;-79
2023/07/02 05:19:41;;;;;;;17.67;7.43;;;16.10;99.90;;;;;;5046899;28;20045;-77
2023/07/02 05:22:08;;;;;;;20.05;7.32;;;16.30;99.90;;;;;;5029955;28;20087;-77
2023/07/02 05:24:34;;;;;;;18.60;7.28;;;16.60;99.90;;;;;;5064450;28;20039;-73
2023/07/02 05:26:59;;;;;;;16.98;7.63;;;16.60;99.90;;;;;;5035010;28;20393;-74
2023/07/02 05:29:25;;;;;;;16.25;6.72;;;16.70;99.90;;;;;;5047424;28;20049;-76
2023/07/02 05:31:51;;;;;;;18.13;7.90;;;16.70;99.90;;;;;;5046444;28;20059;-78
2023/07/02 05:34:17;;;;;;;15.38;5.95;;;16.70;99.90;;;;;;5054437;28;20052;-79
2023/07/02 05:36:42;;;;;;;12.55;5.70;;;16.80;99.90;;;;;;5065290;28;20083;-73
2023/07/02 05:39:08;;;;;;;13.63;5.10;;;16.70;99.90;;;;;;5035339;28;20045;-78
2023/07/02 05:41:34;;;;;;;13.50;6.15;;;16.70;99.90;;;;;;5013621;28;20535;-76
2023/07/02 05:44:00;;;;;;;11.43;4.82;;;16.80;99.90;;;;;;5045458;28;20138;-74
2023/07/02 05:46:26;;;;;;;13.70;5.85;;;16.90;99.90;;;;;;5059139;28;20044;-77
2023/07/02 05:48:52;;;;;;;10.13;6.13;;;16.90;99.90;;;;;;5044829;28;20041;-75
2023/07/02 05:51:21;;;;;;;11.50;5.43;;;16.90;99.90;;;;;;5049125;28;20044;-74
2023/07/02 05:53:47;;;;;;;10.40;5.55;;;16.90;99.90;;;;;;5054457;28;20095;-77
2023/07/02 05:56:13;;;;;;;13.45;5.68;;;17.00;99.90;;;;;;5030277;28;20603;-75
2023/07/02 05:58:39;;;;;;;15.52;6.78;;;17.00;99.90;;;;;;5047041;28;20493;-75
2023/07/02 06:01:05;;;;;;;13.73;5.40;;;17.00;99.90;;;;;;5011678;28;20036;-75
2023/07/02 06:03:31;;;;;;;15.90;6.10;;;17.00;99.90;;;;;;5046549;28;20056;-78
2023/07/02 06:05:57;;;;;;;11.02;5.97;;;17.00;99.90;;;;;;5051143;28;20032;-72
2023/07/02 06:08:23;;;;;;;11.35;5.18;;;17.10;99.90;;;;;;5034206;28;20415;-78
2023/07/02 06:10:48;;;;;;;14.68;5.57;;;17.30;99.90;;;;;;5047560;28;20178;-79
2023/07/02 06:13:14;;;;;;;13.35;5.78;;;17.40;99.90;;;;;;5047658;28;20040;-76
2023/07/02 06:15:40;;;;;;;9.55;5.47;;;17.60;99.90;;;;;;5049684;28;20033;-77
2023/07/02 06:18:06;;;;;;;11.05;4.97;;;17.60;99.90;;;;;;5033467;28;20036;-76
2023/07/02 06:20:32;;;;;;;12.30;5.30;;;17.60;99.90;;;;;;5050355;28;20079;-78
2023/07/02 06:22:58;;;;;;;13.48;5.35;;;17.60;99.90;;;;;;5052957;28;20097;-77
2023/07/02 06:25:24;;;;;;;12.70;5.00;;;17.60;99.90;;;;;;5047973;28;20036;-75
2023/07/02 06:27:49;;;;;;;11.88;4.75;;;17.70;99.90;;;;;;5055483;28;20028;-76
2023/07/02 06:30:15;;;;;;;17.05;5.35;;;17.70;99.90;;;;;;5054585;28;20409;-73
2023/07/02 06:32:41;;;;;;;16.02;6.15;;;17.80;99.90;;;;;;5039211;28;20049;-75
2023/07/02 06:35:08;;;;;;;13.23;5.70;;;17.90;99.90;;;;;;5052524;28;20404;-75
2023/07/02 06:37:33;;;;;;;10.43;4.97;;;17.90;99.90;;;;;;5069156;28;20043;-72
2023/07/02 06:39:59;;;;;;;14.48;5.70;;;18.10;99.90;;;;;;5042651;28;20388;-75
2023/07/02 06:42:26;;;;;;;14.57;5.57;;;18.20;99.90;;;;;;5031240;28;20152;-74
2023/07/02 06:44:51;;;;;;;12.65;4.70;;;18.10;99.90;;;;;;5050055;28;20049;-75
2023/07/02 06:47:17;;;;;;;18.35;6.13;;;18.30;99.90;;;;;;5017974;28;20120;-76
2023/07/02 06:49:43;;;;;;;12.82;5.93;;;18.40;99.90;;;;;;5049817;28;20037;-76
2023/07/02 06:52:09;;;;;;;15.25;5.80;;;18.30;99.90;;;;;;5017176;28;20041;-73
2023/07/02 06:54:35;;;;;;;13.80;5.03;;;18.30;99.90;;;;;;5016363;28;20103;-79
2023/07/02 06:57:01;;;;;;;12.57;4.88;;;18.10;99.90;;;;;;5050303;28;20033;-76
2023/07/02 06:59:26;;;;;;;10.98;4.80;;;18.00;99.90;;;;;;5045346;28;20049;-76
2023/07/02 07:01:52;;;;;;;9.75;3.75;;;17.70;99.90;;;;;;4999485;28;20106;-78
2023/07/02 07:04:18;;;;;;;9.73;3.55;;;17.70;99.90;;;;;;5045987;28;20053;-75
2023/07/02 07:06:44;;;;;;;7.10;3.05;;;18.20;99.90;;;;;;5051847;28;20076;-77
2023/07/02 07:09:10;;;;;;;9.82;3.25;;;18.50;99.90;;;;;;5053608;28;20465;-75
2023/07/02 07:11:36;;;;;;;10.13;3.63;;;18.80;99.90;;;;;;5032571;28;20111;-74
2023/07/02 07:14:01;;;;;;;11.90;4.13;;;19.00;99.90;;;;;;5032019;28;20037;-76
2023/07/02 07:16:27;;;;;;;8.48;3.33;;;19.20;99.90;;;;;;5050013;28;20071;-78
2023/07/02 07:18:53;;;;;;;9.77;3.55;;;19.30;99.90;;;;;;4998354;28;20067;-74
2023/07/02 07:21:19;;;;;;;9.95;3.53;;;19.30;99.90;;;;;;5043050;28;20207;-74
2023/07/02 07:23:45;;;;;;;11.13;3.22;;;19.50;99.90;;;;;;5053624;28;20044;-78
2023/07/02 07:26:10;;;;;;;8.20;3.05;;;19.50;99.90;;;;;;5054605;28;20047;-73
2023/07/02 07:28:36;;;;;;;9.45;2.95;;;19.50;99.90;;;;;;5015675;28;20045;-75
2023/07/02 07:31:02;;;;;;;10.20;2.85;;;19.60;99.90;;;;;;5014639;28;20049;-77
2023/07/02 07:33:28;;;;;;;12.90;2.85;;;19.70;99.90;;;;;;5039635;28;20040;-75
2023/07/02 07:36:00;;;;;;;9.98;2.88;;;19.70;99.90;;;;;;5043087;28;20045;-77
2023/07/02 07:38:26;;;;;;;9.63;3.10;;;19.50;99.90;;;;;;5010361;28;20037;-75
2023/07/02 07:40:51;;;;;;;12.65;3.15;;;19.70;99.90;;;;;;5031258;28;20041;-75
2023/07/02 07:43:17;;;;;;;7.18;3.20;;;19.80;99.90;;;;;;5047498;28;20059;-74
2023/07/02 07:45:43;;;;;;;11.25;3.55;;;19.80;99.90;;;;;;5049126;28;20060;-72
2023/07/02 07:48:09;;;;;;;7.07;3.28;;;19.60;99.90;;;;;;5030419;28;20037;-75
2023/07/02 07:50:34;;;;;;;9.75;2.85;;;19.60;99.90;;;;;;5032498;28;20041;-72
2023/07/02 07:53:00;;;;;;;7.38;3.10;;;19.20;99.90;;;;;;5037090;28;20037;-78
2023/07/02 07:55:26;;;;;;;6.63;2.70;;;19.00;99.90;;;;;;5034498;28;20033;-78
2023/07/02 07:57:51;;;;;;;7.65;3.13;;;19.20;99.90;;;;;;5037280;28;20040;-76
2023/07/02 08:00:17;;;;;;;10.35;3.10;;;19.40;99.90;;;;;;5048809;28;20086;-75
2023/07/02 08:02:45;;;;;;;8.77;3.10;;;19.60;99.90;;;;;;5017090;28;20385;-77
2023/07/02 08:05:11;;;;;;;7.00;2.78;;;19.50;99.90;;;;;;5047100;28;20120;-74
2023/07/02 08:07:36;;;;;;;8.68;2.50;;;19.70;99.90;;;;;;5048537;28;20119;-74
2023/07/02 08:10:02;;;;;;;6.80;2.53;;;19.70;99.90;;;;;;5014487;28;20439;-76
2023/07/02 08:12:29;;;;;;;8.48;3.58;;;19.90;99.90;;;;;;5014580;28;20080;-74
2023/07/02 08:14:55;;;;;;;8.65;2.85;;;19.90;99.90;;;;;;5048752;28;20151;-76
2023/07/02 08:17:21;;;;;;;9.07;3.03;;;19.90;99.90;;;;;;5066544;28;20044;-75
2023/07/02 08:19:47;;;;;;;9.60;2.92;;;19.90;99.90;;;;;;5035880;28;20094;-76
2023/07/02 08:22:13;;;;;;;7.10;2.80;;;19.90;99.90;;;;;;5037039;28;20040;-79
2023/07/02 08:24:39;;;;;;;6.25;3.03;;;19.60;99.90;;;;;;5032958;28;20080;-75
2023/07/02 08:27:05;;;;;;;7.70;3.13;;;19.40;99.90;;;;;;5045646;28;20075;-75
2023/07/02 08:29:31;;;;;;;6.45;2.83;;;19.10;99.90;;;;;;5031985;28;20063;-75
2023/07/02 08:31:57;;;;;;;8.55;3.10;;;19.00;99.90;;;;;;5047685;28;20053;-73
2023/07/02 08:34:23;;;;;;;11.85;3.22;;;18.90;99.90;;;;;;5033664;28;20115;-74
2023/07/02 08:36:49;;;;;;;7.30;3.08;;;18.80;99.90;;;;;;5032442;28;20124;-80
2023/07/02 08:39:15;;;;;;;9.43;3.35;;;18.70;99.90;;;;;;5023045;28;20098;-78
2023/07/02 08:41:44;;;;;;;9.77;3.53;;;18.60;99.90;;;;;;5010298;28;20044;-75
2023/07/02 08:44:12;;;;;;;9.32;3.67;;;18.30;99.90;;;;;;5025366;28;20051;-75
2023/07/02 08:46:39;;;;;;;7.25;3.20;;;18.20;99.90;;;;;;5007862;28;20047;-75
2023/07/02 08:49:06;;;;;;;9.82;3.80;;;18.10;99.90;;;;;;5026784;28;20865;-78
2023/07/02 08:51:31;;;;;;;7.68;3.20;;;18.00;99.90;;;;;;5030934;28;20064;-75
2023/07/02 08:53:57;;;;;;;10.52;4.30;;;18.40;99.90;;;;;;5011226;28;20541;-74
2023/07/02 08:56:23;;;;;;;8.20;3.63;;;18.70;99.90;;;;;;5046051;28;20658;-80
2023/07/02 08:58:48;;;;;;;12.65;3.63;;;19.20;99.90;;;;;;5012967;28;20124;-77
2023/07/02 09:01:15;;;;;;;9.30;3.80;;;19.90;99.90;;;;;;5046450;28;20080;-79
2023/07/02 09:03:41;;;;;;;7.30;3.55;;;20.10;99.90;;;;;;5041707;28;20091;-80
2023/07/02 09:06:08;;;;;;;8.60;3.72;;;20.40;99.90;;;;;;5012045;28;20124;-79
2023/07/02 09:08:34;;;;;;;10.18;3.88;;;20.60;99.90;;;;;;5014396;28;20040;-77
2023/07/02 09:11:17;;;;;;;6.38;3.53;;;20.20;99.90;;;;;;5046048;28;20044;-77
2023/07/02 09:13:50;;;;;;;7.00;3.10;;;20.80;99.90;;;;;;5022151;28;20041;-80
2023/07/02 09:16:27;;;;;;;7.72;3.28;;;21.20;99.90;;;;;;5030320;28;20044;-76
2023/07/02 09:19:02;;;;;;;8.25;4.20;;;21.20;99.90;;;;;;5039554;28;20484;-79
2023/07/02 09:21:48;;;;;;;11.50;3.55;;;20.70;99.90;;;;;;5025951;28;20121;-75
2023/07/02 09:24:25;;;;;;;13.45;3.92;;;21.10;99.90;;;;;;5046203;28;20371;-78
2023/07/02 09:26:53;;;;;;;7.78;3.00;;;20.90;99.90;;;;;;5043615;28;20516;-76
2023/07/02 09:29:29;;;;;;;6.88;3.20;;;20.80;99.90;;;;;;5051955;28;20764;-77
2023/07/02 09:32:08;;;;;;;7.43;3.30;;;21.10;99.90;;;;;;5048652;28;20119;-78
2023/07/02 09:34:39;;;;;;;9.90;2.90;;;20.20;99.90;;;;;;5047109;28;20083;-77
2023/07/02 09:37:05;;;;;;;6.85;2.80;;;20.20;99.90;;;;;;5028773;28;20045;-79
2023/07/02 09:39:32;;;;;;;8.07;2.42;;;20.00;99.90;;;;;;5035631;28;20040;-81
2023/07/02 09:42:00;;;;;;;5.50;2.40;;;19.90;99.90;;;;;;5044069;28;20465;-77
2023/07/02 09:44:31;;;;;;;8.30;2.15;;;19.60;99.90;;;;;;5046835;28;20040;-78
2023/07/02 09:47:03;;;;;;;9.02;2.95;;;19.90;99.90;;;;;;5028295;28;20129;-75
2023/07/02 09:49:33;;;;;;;7.75;2.47;;;20.00;99.90;;;;;;5030387;28;20033;-75
2023/07/02 09:52:08;;;;;;;7.35;2.63;;;19.70;99.90;;;;;;5041085;28;20462;-80
2023/07/02 09:54:34;;;;;;;7.05;2.50;;;20.20;99.90;;;;;;5046460;28;20036;-81
2023/07/02 09:57:01;;;;;;;5.25;2.00;;;21.00;99.90;;;;;;5031849;28;20462;-76
2023/07/02 09:59:27;;;;;;;7.20;2.40;;;21.00;99.90;;;;;;5046485;28;20465;-75
2023/07/02 10:01:53;;;;;;;5.45;2.40;;;21.10;99.90;;;;;;5050040;28;20102;-76
2023/07/02 10:04:21;;;;;;;9.50;2.40;;;20.80;99.90;;;;;;5041155;28;20571;-76
2023/07/02 10:06:52;;;;;;;3.85;2.35;;;21.00;99.90;;;;;;5037857;28;20037;-77
2023/07/02 10:09:19;;;;;;;9.77;2.83;;;21.70;99.90;;;;;;5029415;28;20056;-76
2023/07/02 10:11:45;;;;;;;8.68;2.65;;;22.30;99.90;;;;;;5044957;28;20476;-73
2023/07/02 10:14:11;;;;;;;7.43;2.72;;;22.20;99.90;;;;;;5031914;28;20064;-76
2023/07/02 10:16:55;;;;;;;6.95;2.40;;;22.30;99.90;;;;;;5046990;28;20417;-76
2023/07/02 10:19:21;;;;;;;6.78;2.60;;;21.60;99.90;;;;;;5048081;28;20123;-75
2023/07/02 10:22:00;;;;;;;6.18;2.30;;;21.50;99.90;;;;;;5030779;28;20131;-78
2023/07/02 10:24:26;;;;;;;6.63;2.47;;;21.00;99.90;;;;;;5046435;28;20750;-79
2023/07/02 10:26:57;;;;;;;5.95;2.65;;;20.70;99.90;;;;;;5045863;28;20037;-77
2023/07/02 10:29:25;;;;;;;7.90;2.38;;;20.70;99.90;;;;;;5015411;28;20365;-76
2023/07/02 10:31:52;;;;;;;5.72;2.17;;;20.80;99.90;;;;;;5046669;28;20109;-75
2023/07/02 10:34:35;;;;;;;4.57;2.10;;;20.60;99.80;;;;;;5053399;28;20060;-77
2023/07/02 10:37:02;;;;;;;5.07;2.13;;;21.20;88.80;;;;;;5047905;28;20051;-78
2023/07/02 10:39:30;;;;;;;4.68;2.13;;;21.00;92.80;;;;;;5043653;28;20058;-77
2023/07/02 10:42:09;;;;;;;5.85;2.42;;;21.50;90.00;;;;;;5031186;28;20449;-77
2023/07/02 10:44:50;;;;;;;6.82;2.45;;;21.30;57.70;;;;;;5044328;28;20037;-76
2023/07/02 10:47:16;;;;;;;7.63;2.70;;;21.00;48.80;;;;;;5040237;28;20704;-79
2023/07/02 10:49:42;;;;;;;9.20;2.50;;;21.00;85.50;;;;;;5025429;28;20115;-77
2023/07/02 10:52:07;;;;;;;9.18;2.90;;;21.70;91.00;;;;;;5055241;28;20127;-76
2023/07/02 10:54:43;;;;;;;8.75;3.10;;;22.40;85.10;;;;;;5049399;28;20202;-74
2023/07/02 10:57:11;;;;;;;13.85;4.82;;;22.60;55.70;;;;;;5029772;28;20040;-75
2023/07/02 10:59:37;;;;;;;6.82;2.38;;;22.40;49.60;;;;;;5048065;28;20094;-73
2023/07/02 11:02:04;;;;;;;8.88;3.10;;;22.00;40.30;;;;;;5049401;28;20045;-74
2023/07/02 11:04:31;;;;;;;6.43;2.70;;;21.70;43.80;;;;;;5048396;28;20037;-73
2023/07/02 11:06:57;;;;;;;5.47;2.78;;;22.10;61.00;;;;;;5013698;28;20040;-74
2023/07/02 11:09:24;;;;;;;8.00;2.80;;;22.00;59.20;;;;;;5046428;28;20120;-73
2023/07/02 11:11:57;;;;;;;5.60;2.88;;;21.80;71.10;;;;;;5047020;28;20543;-77
2023/07/02 11:14:39;;;;;;;6.05;2.70;;;21.70;68.00;;;;;;5047017;28;20152;-75
2023/07/02 11:17:06;;;;;;;9.25;3.13;;;21.40;68.90;;;;;;5041390;28;20199;-77
2023/07/02 11:19:33;;;;;;;9.57;3.08;;;20.90;65.10;;;;;;5046505;28;20048;-77
2023/07/02 11:22:00;;;;;;;8.48;3.13;;;21.20;79.30;;;;;;5047891;28;20083;-76
2023/07/02 11:24:36;;;;;;;6.80;2.50;;;21.70;75.80;;;;;;5031962;28;20041;-77
2023/07/02 11:27:05;;;;;;;5.43;2.67;;;21.50;44.40;;;;;;5023816;28;20138;-73
2023/07/02 11:29:31;;;;;;;4.25;2.60;;;21.30;55.10;;;;;;5032109;28;20053;-74
2023/07/02 11:32:07;;;;;;;6.25;2.60;;;20.90;51.30;;;;;;5050417;28;20744;-73
2023/07/02 11:34:33;;;;;;;5.55;2.72;;;20.70;35.00;;;;;;5048745;28;20047;-74
2023/07/02 11:36:58;;;;;;;5.80;2.40;;;20.70;66.10;;;;;;5048105;28;20049;-74
2023/07/02 11:39:24;;;;;;;6.60;2.35;;;21.20;54.10;;;;;;5049307;28;20147;-74
2023/07/02 11:41:50;;;;;;;5.65;2.30;;;22.30;44.50;;;;;;5014923;28;20428;-74
2023/07/02 11:44:17;;;;;;;6.50;2.35;;;22.50;25.00;;;;;;5048979;28;20124;-75
2023/07/02 11:46:43;;;;;;;8.63;2.50;;;22.20;26.50;;;;;;5031402;28;20033;-73
2023/07/02 11:49:09;;;;;;;6.32;2.25;;;22.60;9.70;;;;;;5031112;28;20683;-73
2023/07/02 11:51:36;;;;;;;4.35;2.22;;;23.00;11.20;;;;;;5031004;28;20033;-75
2023/07/02 11:54:04;;;;;;;5.72;2.00;;;23.30;6.30;;;;;;5014576;28;20037;-74
2023/07/02 11:56:29;;;;;;;5.00;1.73;;;23.20;1.00;;;;;;5047013;28;20041;-73
2023/07/02 11:58:55;;;;;;;5.88;2.38;;;23.20;1.00;;;;;;5047079;28;20037;-77
2023/07/02 12:01:21;;;;;;;6.50;2.53;;;23.00;1.00;;;;;;5031101;28;20033;-74
2023/07/02 12:03:46;;;;;;;5.82;2.38;;;22.70;1.00;;;;;;5013964;28;20032;-74
2023/07/02 12:06:12;;;;;;;5.00;2.35;;;22.40;1.00;;;;;;5013288;28;20045;-72
2023/07/02 12:08:38;;;;;;;3.65;2.00;;;21.50;1.00;;;;;;5030683;28;20438;-75
2023/07/02 12:11:03;;;;;;;5.15;2.45;;;21.40;3.80;;;;;;5030108;28;20041;-75
2023/07/02 12:13:29;;;;;;;7.65;2.53;;;21.40;7.10;;;;;;5047478;28;20033;-75
2023/07/02 12:15:55;;;;;;;7.30;2.30;;;21.80;1.00;;;;;;5046609;28;20119;-74
2023/07/02 12:18:20;;;;;;;8.07;2.45;;;21.70;1.00;;;;;;4997542;28;20483;-74
2023/07/02 12:20:46;;;;;;;4.65;2.22;;;21.00;1.00;;;;;;5030612;28;20037;-75
2023/07/02 12:23:12;;;;;;;6.70;2.60;;;21.90;1.00;;;;;;5030803;28;20043;-75
2023/07/02 12:25:38;;;;;;;7.07;2.40;;;21.60;1.00;;;;;;5030693;28;20040;-75
2023/07/02 12:28:04;;;;;;;5.53;2.45;;;22.20;1.00;;;;;;5030060;28;20067;-74
2023/07/02 12:30:30;;;;;;;5.38;2.38;;;22.20;1.00;;;;;;5031813;28;20024;-77
2023/07/02 12:32:56;;;;;;;6.45;2.40;;;22.00;1.00;;;;;;5046835;28;20120;-76
2023/07/02 12:35:21;;;;;;;5.47;2.80;;;21.70;1.00;;;;;;5030953;28;20135;-74
2023/07/02 12:37:49;;;;;;;7.20;2.83;;;21.50;1.00;;;;;;5047291;28;20079;-75
2023/07/02 12:40:16;;;;;;;7.97;2.60;;;20.80;1.00;;;;;;5029861;28;20049;-74